createdAt,value
2018-12-17T00:00:04.986Z,101727.80
2018-12-17T00:01:08.978Z,101725.95
2018-12-17T00:02:13.033Z,101725.18
2018-12-17T00:03:17.054Z,101721.50
2018-12-17T00:04:21.080Z,101722.78
2018-12-17T00:05:25.066Z,101716.05
2018-12-17T00:06:29.004Z,101716.33
2018-12-17T00:07:33.002Z,101715.64
2018-12-17T00:08:36.992Z,101714.30
2018-12-17T00:09:40.915Z,101713.38
2018-12-17T00:10:44.883Z,101711.69
2018-12-17T00:11:48.868Z,101707.33
2018-12-17T00:12:52.865Z,101713.72
2018-12-17T00:13:56.838Z,101710.69
2018-12-17T00:15:00.778Z,101706.36
2018-12-17T00:16:04.775Z,101711.06
2018-12-17T00:17:08.730Z,101707.70
2018-12-17T00:18:12.743Z,101704.86
2018-12-17T00:19:16.683Z,101704.98
2018-12-17T00:20:20.682Z,101705.27
2018-12-17T00:21:24.704Z,101708.70
2018-12-17T00:22:28.657Z,101710.63
2018-12-17T00:23:32.629Z,101699.91
2018-12-17T00:24:36.558Z,101703.66
2018-12-17T00:25:40.503Z,101709.17
2018-12-17T00:26:44.469Z,101701.91
2018-12-17T00:27:48.610Z,101705.98
2018-12-17T00:28:52.628Z,101706.67
2018-12-17T00:29:56.607Z,101705.61
2018-12-17T00:31:00.690Z,101690.87
2018-12-17T00:32:04.673Z,101692.94
2018-12-17T00:33:08.689Z,101690.59
2018-12-17T00:34:12.620Z,101694.80
2018-12-17T00:35:16.576Z,101695.86
2018-12-17T00:36:20.543Z,101699.38
2018-12-17T00:37:24.589Z,101694.64
2018-12-17T00:38:28.596Z,101699.56
2018-12-17T00:39:32.603Z,101695.39
2018-12-17T00:40:36.539Z,101698.75
2018-12-17T00:41:40.454Z,101697.67
2018-12-17T00:42:44.532Z,101692.52
2018-12-17T00:43:48.702Z,101688.03
2018-12-17T00:44:52.665Z,101696.55
2018-12-17T00:45:56.608Z,101689.45
2018-12-17T00:47:00.550Z,101691.13
2018-12-17T00:48:04.579Z,101690.84
2018-12-17T00:49:08.540Z,101681.22
2018-12-17T00:50:12.491Z,101691.34
2018-12-17T00:51:16.506Z,101693.37
2018-12-17T00:52:20.466Z,101689.00
2018-12-17T00:53:24.380Z,101694.21
2018-12-17T00:54:28.379Z,101692.03
2018-12-17T00:55:32.313Z,101698.75
2018-12-17T00:56:36.262Z,101694.45
2018-12-17T00:57:40.209Z,101699.50
2018-12-17T00:58:44.265Z,101697.50
2018-12-17T00:59:48.289Z,101695.03
2018-12-17T01:00:52.331Z,101696.56
2018-12-17T01:01:56.316Z,101695.74
2018-12-17T01:03:00.312Z,101693.88
2018-12-17T01:04:04.373Z,101697.09
2018-12-17T01:05:08.651Z,101699.61
2018-12-17T01:06:12.614Z,101699.98
2018-12-17T01:07:16.686Z,101699.32
2018-12-17T01:08:20.711Z,101694.30
2018-12-17T01:09:24.860Z,101690.97
2018-12-17T01:10:28.865Z,101697.33
2018-12-17T01:11:32.827Z,101689.12
2018-12-17T01:12:36.796Z,101690.30
2018-12-17T01:13:40.804Z,101696.72
2018-12-17T01:14:44.773Z,101688.68
2018-12-17T01:15:48.742Z,101691.37
2018-12-17T01:16:52.689Z,101694.72
2018-12-17T01:17:56.617Z,101695.41
2018-12-17T01:19:00.591Z,101697.06
2018-12-17T01:20:05.104Z,101684.31
2018-12-17T01:21:09.090Z,101689.55
2018-12-17T01:22:13.095Z,101693.44
2018-12-17T01:23:17.046Z,101695.95
2018-12-17T01:24:21.003Z,101692.77
2018-12-17T01:25:24.951Z,101693.11
2018-12-17T01:26:28.988Z,101679.66
2018-12-17T01:27:33.216Z,101689.78
2018-12-17T01:28:37.251Z,101685.09
2018-12-17T01:29:41.420Z,101689.48
2018-12-17T01:30:45.339Z,101683.46
2018-12-17T01:31:49.343Z,101686.48
2018-12-17T01:32:53.371Z,101687.33
2018-12-17T01:33:57.278Z,101684.14
2018-12-17T01:35:01.250Z,101677.78
2018-12-17T01:36:05.238Z,101682.98
2018-12-17T01:37:09.268Z,101683.82
2018-12-17T01:38:13.257Z,101676.98
2018-12-17T01:39:17.377Z,101681.85
2018-12-17T01:40:21.372Z,101682.53
2018-12-17T01:41:25.494Z,101682.03
2018-12-17T01:42:29.811Z,101680.53
2018-12-17T01:43:33.800Z,101678.34
2018-12-17T01:44:37.740Z,101681.70
2018-12-17T01:45:41.657Z,101678.84
2018-12-17T01:46:45.749Z,101679.53
2018-12-17T01:47:50.048Z,101681.92
2018-12-17T01:48:53.982Z,101672.48
2018-12-17T01:49:57.963Z,101684.94
2018-12-17T01:51:04.909Z,101678.57
2018-12-17T01:52:08.852Z,101677.23
2018-12-17T01:53:12.909Z,101678.91
2018-12-17T01:54:17.024Z,101668.14
2018-12-17T01:55:21.032Z,101671.70
2018-12-17T01:56:25.109Z,101675.57
2018-12-17T01:57:29.079Z,101675.57
2018-12-17T01:58:33.051Z,101670.20
2018-12-17T01:59:37.043Z,101675.91
2018-12-17T02:00:41.030Z,101672.59
2018-12-17T02:01:45.060Z,101672.22
2018-12-17T02:02:49.073Z,101670.75
2018-12-17T02:03:53.287Z,101665.89
2018-12-17T02:04:57.239Z,101671.59
2018-12-17T02:06:01.251Z,101676.29
2018-12-17T02:07:05.247Z,101672.77
2018-12-17T02:08:09.176Z,101677.80
2018-12-17T02:09:13.244Z,101672.77
2018-12-17T02:10:17.192Z,101680.66
2018-12-17T02:11:21.154Z,101674.45
2018-12-17T02:12:25.080Z,101672.61
2018-12-17T02:13:29.023Z,101673.11
2018-12-17T02:14:33.007Z,101675.62
2018-12-17T02:15:37.005Z,101674.28
2018-12-17T02:16:40.979Z,101671.95
2018-12-17T02:17:44.965Z,101675.97
2018-12-17T02:18:48.951Z,101672.77
2018-12-17T02:19:52.968Z,101671.95
2018-12-17T02:20:57.011Z,101667.08
2018-12-17T02:22:00.960Z,101672.28
2018-12-17T02:23:04.931Z,101672.78
2018-12-17T02:24:08.885Z,101672.28
2018-12-17T02:25:13.111Z,101669.97
2018-12-17T02:26:17.037Z,101673.63
2018-12-17T02:27:20.990Z,101671.65
2018-12-17T02:28:25.023Z,101670.31
2018-12-17T02:29:28.992Z,101674.67
2018-12-17T02:30:33.017Z,101672.99
2018-12-17T02:31:37.015Z,101671.98
2018-12-17T02:32:41.025Z,101670.98
2018-12-17T02:33:44.974Z,101669.98
2018-12-17T02:34:48.958Z,101665.62
2018-12-17T02:35:52.908Z,101661.94
2018-12-17T02:36:56.863Z,101667.98
2018-12-17T02:38:00.920Z,101672.00
2018-12-17T02:39:06.445Z,101667.98
2018-12-17T02:40:10.456Z,101671.00
2018-12-17T02:41:14.485Z,101674.02
2018-12-17T02:42:18.442Z,101665.97
2018-12-17T02:43:22.392Z,101668.19
2018-12-17T02:44:26.429Z,101667.69
2018-12-17T02:45:30.760Z,101663.66
2018-12-17T02:46:34.712Z,101662.66
2018-12-17T02:47:38.632Z,101659.63
2018-12-17T02:48:42.632Z,101662.66
2018-12-17T02:49:46.620Z,101665.34
2018-12-17T02:50:50.621Z,101668.86
2018-12-17T02:51:54.580Z,101668.36
2018-12-17T02:52:59.011Z,101670.20
2018-12-17T02:54:03.345Z,101672.05
2018-12-17T02:55:07.769Z,101666.68
2018-12-17T02:56:11.822Z,101672.05
2018-12-17T02:57:15.821Z,101659.47
2018-12-17T02:58:19.822Z,101671.20
2018-12-17T02:59:23.774Z,101666.68
2018-12-17T03:00:27.717Z,101670.70
2018-12-17T03:01:31.721Z,101673.05
2018-12-17T03:02:35.692Z,101669.36
2018-12-17T03:03:39.984Z,101668.52
2018-12-17T03:04:44.308Z,101667.69
2018-12-17T03:05:48.628Z,101676.07
2018-12-17T03:06:53.138Z,101668.52
2018-12-17T03:07:57.408Z,101673.05
2018-12-17T03:09:01.676Z,101673.05
2018-12-17T03:10:06.486Z,101673.05
2018-12-17T03:11:10.738Z,101671.20
2018-12-17T03:12:15.138Z,101668.52
2018-12-17T03:13:19.483Z,101676.07
2018-12-17T03:14:23.760Z,101669.02
2018-12-17T03:15:28.127Z,101677.08
2018-12-17T03:16:32.437Z,101670.87
2018-12-17T03:17:36.622Z,101674.52
2018-12-17T03:18:40.941Z,101675.73
2018-12-17T03:19:45.235Z,101672.05
2018-12-17T03:20:49.570Z,101669.99
2018-12-17T03:21:53.893Z,101675.36
2018-12-17T03:22:58.172Z,101673.55
2018-12-17T03:24:02.535Z,101673.18
2018-12-17T03:25:06.897Z,101684.63
2018-12-17T03:26:10.861Z,101669.99
2018-12-17T03:27:15.118Z,101672.68
2018-12-17T03:28:19.411Z,101666.97
2018-12-17T03:29:23.354Z,101671.34
2018-12-17T03:30:27.462Z,101672.68
2018-12-17T03:31:31.844Z,101673.55
2018-12-17T03:32:36.196Z,101674.02
2018-12-17T03:33:40.505Z,101664.28
2018-12-17T03:34:44.493Z,101668.66
2018-12-17T03:35:48.460Z,101664.29
2018-12-17T03:36:52.701Z,101662.60
2018-12-17T03:37:57.224Z,101673.18
2018-12-17T03:39:01.112Z,101653.55
2018-12-17T03:40:05.472Z,101665.13
2018-12-17T03:41:09.763Z,101664.29
2018-12-17T03:42:13.763Z,101667.47
2018-12-17T03:43:17.728Z,101660.59
2018-12-17T03:44:21.689Z,101652.53
2018-12-17T03:45:25.644Z,101666.13
2018-12-17T03:46:29.562Z,101665.63
2018-12-17T03:47:33.533Z,101670.50
2018-12-17T03:48:37.709Z,101667.98
2018-12-17T03:49:41.692Z,101664.29
2018-12-17T03:50:45.964Z,101664.80
2018-12-17T03:51:50.393Z,101669.66
2018-12-17T03:52:54.320Z,101665.30
2018-12-17T03:53:58.515Z,101671.16
2018-12-17T03:55:02.653Z,101674.19
2018-12-17T03:56:06.902Z,101666.64
2018-12-17T03:57:10.849Z,101674.34
2018-12-17T03:58:14.797Z,101674.69
2018-12-17T03:59:18.858Z,101668.81
2018-12-17T04:00:22.795Z,101666.30
2018-12-17T04:01:26.762Z,101671.66
2018-12-17T04:02:30.722Z,101665.13
2018-12-17T04:03:34.650Z,101671.16
2018-12-17T04:04:38.724Z,101670.32
2018-12-17T04:05:42.691Z,101661.55
2018-12-17T04:06:46.728Z,101668.64
2018-12-17T04:07:50.702Z,101665.95
2018-12-17T04:08:54.716Z,101669.14
2018-12-17T04:09:58.770Z,101675.34
2018-12-17T04:11:02.719Z,101668.30
2018-12-17T04:12:06.699Z,101669.64
2018-12-17T04:13:11.032Z,101671.83
2018-12-17T04:14:14.945Z,101676.35
2018-12-17T04:15:19.107Z,101663.44
2018-12-17T04:16:23.034Z,101667.30
2018-12-17T04:17:26.978Z,101671.48
2018-12-17T04:18:31.027Z,101672.83
2018-12-17T04:19:34.961Z,101676.02
2018-12-17T04:20:38.933Z,101663.22
2018-12-17T04:21:42.920Z,101668.92
2018-12-17T04:22:46.927Z,101676.02
2018-12-17T04:23:50.861Z,101670.31
2018-12-17T04:24:54.800Z,101678.36
2018-12-17T04:25:58.761Z,101669.97
2018-12-17T04:27:02.700Z,101677.52
2018-12-17T04:28:09.649Z,101675.34
2018-12-17T04:29:13.988Z,101670.31
2018-12-17T04:30:18.194Z,101669.47
2018-12-17T04:31:22.182Z,101672.48
2018-12-17T04:32:26.111Z,101665.56
2018-12-17T04:33:30.031Z,101667.29
2018-12-17T04:34:33.999Z,101672.15
2018-12-17T04:35:37.959Z,101670.60
2018-12-17T04:36:41.975Z,101671.31
2018-12-17T04:37:46.019Z,101669.59
2018-12-17T04:38:50.743Z,101667.92
2018-12-17T04:39:54.001Z,101676.67
2018-12-17T04:40:58.043Z,101677.02
2018-12-17T04:42:02.029Z,101671.31
2018-12-17T04:43:06.097Z,101672.99
2018-12-17T04:44:10.144Z,101666.92
2018-12-17T04:45:14.070Z,101670.44
2018-12-17T04:46:18.018Z,101669.97
2018-12-17T04:47:22.041Z,101672.66
2018-12-17T04:48:26.016Z,101663.88
2018-12-17T04:49:29.969Z,101670.81
2018-12-17T04:50:33.886Z,101673.13
2018-12-17T04:51:37.846Z,101671.31
2018-12-17T04:52:41.827Z,101681.04
2018-12-17T04:53:45.780Z,101681.55
2018-12-17T04:54:49.723Z,101678.02
2018-12-17T04:55:53.633Z,101676.67
2018-12-17T04:56:57.572Z,101679.83
2018-12-17T04:58:01.766Z,101676.67
2018-12-17T04:59:05.827Z,101674.47
2018-12-17T05:00:10.472Z,101673.99
2018-12-17T05:01:14.429Z,101685.56
2018-12-17T05:02:18.448Z,101682.05
2018-12-17T05:03:22.506Z,101675.80
2018-12-17T05:04:26.441Z,101677.86
2018-12-17T05:05:30.399Z,101682.38
2018-12-17T05:06:34.384Z,101683.72
2018-12-17T05:07:38.334Z,101682.88
2018-12-17T05:08:42.350Z,101679.36
2018-12-17T05:09:46.256Z,101670.59
2018-12-17T05:10:50.159Z,101689.09
2018-12-17T05:11:54.132Z,101689.93
2018-12-17T05:12:58.178Z,101684.72
2018-12-17T05:14:02.352Z,101686.06
2018-12-17T05:15:06.752Z,101685.56
2018-12-17T05:16:10.701Z,101685.56
2018-12-17T05:17:14.654Z,101686.41
2018-12-17T05:18:18.593Z,101689.09
2018-12-17T05:19:22.774Z,101694.45
2018-12-17T05:20:26.747Z,101689.09
2018-12-17T05:21:30.799Z,101694.45
2018-12-17T05:22:34.752Z,101697.64
2018-12-17T05:23:38.763Z,101697.98
2018-12-17T05:24:42.817Z,101702.50
2018-12-17T05:25:46.807Z,101696.75
2018-12-17T05:26:50.764Z,101708.88
2018-12-17T05:27:54.675Z,101709.71
2018-12-17T05:28:58.607Z,101714.58
2018-12-17T05:30:02.610Z,101713.87
2018-12-17T05:31:06.614Z,101710.69
2018-12-17T05:32:10.555Z,101718.60
2018-12-17T05:33:14.586Z,101713.87
2018-12-17T05:34:18.533Z,101722.63
2018-12-17T05:35:22.557Z,101719.61
2018-12-17T05:36:26.490Z,101720.95
2018-12-17T05:37:30.437Z,101720.95
2018-12-17T05:38:34.427Z,101723.62
2018-12-17T05:39:38.378Z,101722.28
2018-12-17T05:40:42.394Z,101725.94
2018-12-17T05:41:46.380Z,101728.49
2018-12-17T05:42:50.314Z,101726.78
2018-12-17T05:43:54.227Z,101728.63
2018-12-17T05:44:58.129Z,101734.70
2018-12-17T05:46:02.151Z,101732.14
2018-12-17T05:47:06.124Z,101735.70
2018-12-17T05:48:10.103Z,101728.13
2018-12-17T05:49:14.147Z,101737.05
2018-12-17T05:50:18.086Z,101736.67
2018-12-17T05:51:22.067Z,101736.67
2018-12-17T05:52:26.201Z,101733.98
2018-12-17T05:53:30.161Z,101738.02
2018-12-17T05:54:34.112Z,101736.99
2018-12-17T05:55:38.092Z,101733.62
2018-12-17T05:56:42.414Z,101740.35
2018-12-17T05:57:46.404Z,101743.04
2018-12-17T05:58:50.369Z,101748.41
2018-12-17T05:59:54.276Z,101752.77
2018-12-17T06:00:58.286Z,101753.77
2018-12-17T06:02:02.303Z,101749.74
2018-12-17T06:03:06.261Z,101755.45
2018-12-17T06:04:10.172Z,101748.41
2018-12-17T06:05:14.116Z,101754.61
2018-12-17T06:06:18.068Z,101755.11
2018-12-17T06:07:22.030Z,101760.81
2018-12-17T06:08:26.075Z,101758.13
2018-12-17T06:09:30.041Z,101757.80
2018-12-17T06:10:34.002Z,101759.14
2018-12-17T06:11:38.042Z,101764.84
2018-12-17T06:12:42.047Z,101759.14
2018-12-17T06:13:45.945Z,101759.47
2018-12-17T06:14:49.940Z,101763.50
2018-12-17T06:15:54.285Z,101761.81
2018-12-17T06:16:58.640Z,101770.70
2018-12-17T06:18:03.027Z,101766.19
2018-12-17T06:19:07.363Z,101770.70
2018-12-17T06:20:11.581Z,101769.86
2018-12-17T06:21:15.600Z,101777.91
2018-12-17T06:22:19.743Z,101778.08
2018-12-17T06:23:24.014Z,101772.87
2018-12-17T06:24:28.372Z,101782.59
2018-12-17T06:25:32.674Z,101780.08
2018-12-17T06:26:36.955Z,101779.58
2018-12-17T06:27:40.884Z,101777.89
2018-12-17T06:28:44.878Z,101779.23
2018-12-17T06:29:48.861Z,101775.20
2018-12-17T06:30:52.804Z,101775.16
2018-12-17T06:31:56.743Z,101779.73
2018-12-17T06:33:00.811Z,101783.26
2018-12-17T06:34:04.805Z,101774.81
2018-12-17T06:35:08.779Z,101779.89
2018-12-17T06:36:12.763Z,101782.08
2018-12-17T06:37:16.695Z,101791.97
2018-12-17T06:38:20.602Z,101785.09
2018-12-17T06:39:24.620Z,101786.60
2018-12-17T06:40:28.513Z,101789.63
2018-12-17T06:41:32.389Z,101794.48
2018-12-17T06:42:36.330Z,101792.94
2018-12-17T06:43:40.299Z,101796.33
2018-12-17T06:44:44.390Z,101797.33
2018-12-17T06:45:48.348Z,101795.12
2018-12-17T06:46:52.276Z,101799.14
2018-12-17T06:47:56.219Z,101805.38
2018-12-17T06:49:00.176Z,101799.30
2018-12-17T06:50:04.529Z,101801.83
2018-12-17T06:51:08.467Z,101805.00
2018-12-17T06:52:12.418Z,101803.66
2018-12-17T06:53:16.384Z,101809.87
2018-12-17T06:54:20.389Z,101811.22
2018-12-17T06:55:24.357Z,101812.08
2018-12-17T06:56:28.316Z,101809.41
2018-12-17T06:57:32.261Z,101810.75
2018-12-17T06:58:36.264Z,101809.87
2018-12-17T06:59:42.800Z,101816.95
2018-12-17T07:00:44.301Z,101811.71
2018-12-17T07:01:48.401Z,101815.23
2018-12-17T07:02:52.397Z,101816.11
2018-12-17T07:03:56.351Z,101814.89
2018-12-17T07:05:00.279Z,101815.23
2018-12-17T07:06:04.309Z,101817.58
2018-12-17T07:07:08.611Z,101816.89
2018-12-17T07:08:12.878Z,101829.52
2018-12-17T07:09:17.218Z,101828.18
2018-12-17T07:10:21.415Z,101832.55
2018-12-17T07:11:25.839Z,101828.52
2018-12-17T07:12:30.028Z,101830.36
2018-12-17T07:13:34.341Z,101833.73
2018-12-17T07:14:38.685Z,101830.70
2018-12-17T07:15:43.087Z,101828.80
2018-12-17T07:16:47.434Z,101831.83
2018-12-17T07:17:51.739Z,101832.20
2018-12-17T07:18:56.079Z,101836.57
2018-12-17T07:20:00.298Z,101838.91
2018-12-17T07:21:04.632Z,101831.48
2018-12-17T07:22:08.867Z,101833.67
2018-12-17T07:23:13.293Z,101835.73
2018-12-17T07:24:17.675Z,101837.57
2018-12-17T07:25:21.871Z,101838.91
2018-12-17T07:26:26.122Z,101837.70
2018-12-17T07:27:30.464Z,101844.27
2018-12-17T07:28:34.732Z,101848.77
2018-12-17T07:29:39.085Z,101852.11
2018-12-17T07:30:43.401Z,101847.42
2018-12-17T07:31:47.698Z,101856.34
2018-12-17T07:32:52.049Z,101858.53
2018-12-17T07:33:56.399Z,101853.51
2018-12-17T07:35:00.614Z,101860.22
2018-12-17T07:36:04.834Z,101865.08
2018-12-17T07:37:09.157Z,101866.77
2018-12-17T07:38:13.479Z,101873.47
2018-12-17T07:39:17.858Z,101875.50
2018-12-17T07:40:21.852Z,101868.45
2018-12-17T07:41:25.825Z,101870.63
2018-12-17T07:42:29.810Z,101874.50
2018-12-17T07:43:33.779Z,101872.47
2018-12-17T07:44:37.777Z,101866.08
2018-12-17T07:45:41.742Z,101879.84
2018-12-17T07:46:45.917Z,101879.68
2018-12-17T07:47:50.149Z,101875.13
2018-12-17T07:48:54.149Z,101878.18
2018-12-17T07:49:58.114Z,101867.11
2018-12-17T07:51:02.147Z,101875.50
2018-12-17T07:52:06.360Z,101879.86
2018-12-17T07:53:10.337Z,101879.86
2018-12-17T07:54:14.338Z,101876.18
2018-12-17T07:55:18.289Z,101873.50
2018-12-17T07:56:22.274Z,101872.81
2018-12-17T07:57:26.252Z,101876.18
2018-12-17T07:58:30.215Z,101882.55
2018-12-17T07:59:34.563Z,101877.18
2018-12-17T08:00:38.590Z,101875.00
2018-12-17T08:01:42.785Z,101878.36
2018-12-17T08:02:46.772Z,101881.55
2018-12-17T08:03:50.857Z,101881.55
2018-12-17T08:04:55.153Z,101882.27
2018-12-17T08:05:59.525Z,101881.92
2018-12-17T08:07:03.491Z,101884.95
2018-12-17T08:08:07.557Z,101887.97
2018-12-17T08:09:11.500Z,101889.31
2018-12-17T08:10:15.544Z,101891.49
2018-12-17T08:11:25.981Z,101891.49
2018-12-17T08:12:30.008Z,101892.28
2018-12-17T08:13:34.037Z,101887.91
2018-12-17T08:14:38.423Z,101888.75
2018-12-17T08:15:42.392Z,101884.70
2018-12-17T08:16:46.326Z,101892.28
2018-12-17T08:17:58.494Z,101892.28
2018-12-17T08:19:02.417Z,101894.62
2018-12-17T08:20:06.631Z,101894.96
2018-12-17T08:21:10.710Z,101897.30
2018-12-17T08:22:14.631Z,101904.73
2018-12-17T08:23:18.629Z,101904.73
2018-12-17T08:24:22.568Z,101901.89
2018-12-17T08:25:26.726Z,101906.41
2018-12-17T08:26:31.215Z,101909.09
2018-12-17T08:27:35.218Z,101907.25
2018-12-17T08:28:39.194Z,101906.41
2018-12-17T08:29:43.160Z,101912.78
2018-12-17T08:30:47.187Z,101911.78
2018-12-17T08:31:51.119Z,101914.46
2018-12-17T08:32:55.103Z,101923.35
2018-12-17T08:33:59.109Z,101911.37
2018-12-17T08:35:03.150Z,101922.16
2018-12-17T08:36:07.166Z,101924.84
2018-12-17T08:37:11.094Z,101922.16
2018-12-17T08:38:15.091Z,101934.23
2018-12-17T08:39:19.098Z,101938.73
2018-12-17T08:40:23.032Z,101942.76
2018-12-17T08:41:27.054Z,101944.97
2018-12-17T08:42:31.043Z,101942.41
2018-12-17T08:43:35.056Z,101947.66
2018-12-17T08:44:39.355Z,101943.13
2018-12-17T08:45:43.303Z,101941.73
2018-12-17T08:46:47.377Z,101943.63
2018-12-17T08:47:51.327Z,101951.52
2018-12-17T08:48:55.312Z,101935.42
2018-12-17T08:49:59.276Z,101944.31
2018-12-17T08:51:03.259Z,101950.87
2018-12-17T08:52:07.395Z,101940.57
2018-12-17T08:53:11.337Z,101936.36
2018-12-17T08:54:15.311Z,101947.00
2018-12-17T08:55:19.336Z,101949.03
2018-12-17T08:56:23.348Z,101943.66
2018-12-17T08:57:27.427Z,101948.69
2018-12-17T08:58:31.463Z,101950.37
2018-12-17T08:59:35.429Z,101944.66
2018-12-17T09:00:39.403Z,101939.64
2018-12-17T09:01:43.410Z,101946.34
2018-12-17T09:02:47.450Z,101950.71
2018-12-17T09:03:51.411Z,101955.23
2018-12-17T09:04:55.427Z,101953.39
2018-12-17T09:06:00.624Z,101953.55
2018-12-17T09:07:03.709Z,101948.00
2018-12-17T09:08:07.697Z,101952.89
2018-12-17T09:09:11.710Z,101951.05
2018-12-17T09:10:16.038Z,101957.61
2018-12-17T09:11:20.027Z,101957.48
2018-12-17T09:12:23.963Z,101955.30
2018-12-17T09:13:28.190Z,101957.48
2018-12-17T09:14:32.132Z,101956.48
2018-12-17T09:15:36.106Z,101957.33
2018-12-17T09:16:40.024Z,101959.86
2018-12-17T09:17:43.989Z,101958.17
2018-12-17T09:18:47.995Z,101959.86
2018-12-17T09:19:51.958Z,101961.85
2018-12-17T09:20:55.922Z,101960.02
2018-12-17T09:22:00.031Z,101962.54
2018-12-17T09:23:04.011Z,101959.17
2018-12-17T09:24:08.044Z,101954.14
2018-12-17T09:25:12.068Z,101955.64
2018-12-17T09:26:16.047Z,101964.56
2018-12-17T09:27:20.074Z,101962.13
2018-12-17T09:28:24.096Z,101960.16
2018-12-17T09:29:28.070Z,101964.88
2018-12-17T09:30:32.037Z,101962.38
2018-12-17T09:31:35.981Z,101961.70
2018-12-17T09:32:39.990Z,101964.41
2018-12-17T09:33:43.942Z,101962.09
2018-12-17T09:34:47.959Z,101962.44
2018-12-17T09:35:51.882Z,101964.63
2018-12-17T09:36:55.853Z,101956.58
2018-12-17T09:37:59.788Z,101965.81
2018-12-17T09:39:03.853Z,101961.28
2018-12-17T09:40:08.574Z,101958.95
2018-12-17T09:41:12.598Z,101958.95
2018-12-17T09:42:16.599Z,101957.27
2018-12-17T09:43:20.606Z,101959.44
2018-12-17T09:44:24.618Z,101952.05
2018-12-17T09:45:28.586Z,101952.89
2018-12-17T09:46:32.599Z,101955.92
2018-12-17T09:47:36.630Z,101961.10
2018-12-17T09:48:40.686Z,101962.94
2018-12-17T09:49:44.698Z,101967.81
2018-12-17T09:50:48.728Z,101969.99
2018-12-17T09:51:52.701Z,101964.63
2018-12-17T09:52:56.655Z,101965.97
2018-12-17T09:54:00.580Z,101966.81
2018-12-17T09:55:04.674Z,101977.05
2018-12-17T09:56:08.710Z,101967.31
2018-12-17T09:57:12.691Z,101972.68
2018-12-17T09:58:16.729Z,101962.88
2018-12-17T09:59:20.694Z,101972.68
2018-12-17T10:00:25.610Z,101967.47
2018-12-17T10:01:28.759Z,101975.36
2018-12-17T10:02:32.689Z,101966.81
2018-12-17T10:03:36.703Z,101967.31
2018-12-17T10:04:40.624Z,101963.62
2018-12-17T10:05:44.607Z,101965.97
2018-12-17T10:06:48.664Z,101964.28
2018-12-17T10:07:52.672Z,101965.47
2018-12-17T10:08:56.621Z,101964.63
2018-12-17T10:10:00.544Z,101964.12
2018-12-17T10:11:04.514Z,101964.63
2018-12-17T10:12:08.548Z,101957.86
2018-12-17T10:13:12.462Z,101967.66
2018-12-17T10:14:16.375Z,101975.70
2018-12-17T10:15:20.325Z,101975.70
2018-12-17T10:16:24.339Z,101968.34
2018-12-17T10:17:28.342Z,101965.81
2018-12-17T10:18:36.839Z,101965.31
2018-12-17T10:19:36.348Z,101965.66
2018-12-17T10:20:40.315Z,101950.96
2018-12-17T10:21:44.262Z,101966.66
2018-12-17T10:22:48.350Z,101966.66
2018-12-17T10:23:52.448Z,101961.10
2018-12-17T10:24:56.714Z,101961.94
2018-12-17T10:26:00.708Z,101960.28
2018-12-17T10:27:04.683Z,101962.47
2018-12-17T10:28:08.683Z,101964.47
2018-12-17T10:29:12.642Z,101959.29
2018-12-17T10:30:16.595Z,101960.62
2018-12-17T10:31:20.580Z,101964.16
2018-12-17T10:32:24.611Z,101959.78
2018-12-17T10:33:28.627Z,101955.27
2018-12-17T10:34:32.566Z,101959.29
2018-12-17T10:35:36.541Z,101966.00
2018-12-17T10:36:40.503Z,101955.77
2018-12-17T10:37:44.591Z,101955.27
2018-12-17T10:38:48.680Z,101953.58
2018-12-17T10:39:52.698Z,101959.29
2018-12-17T10:40:56.693Z,101953.08
2018-12-17T10:42:00.670Z,101956.95
2018-12-17T10:43:04.611Z,101957.95
2018-12-17T10:44:08.667Z,101949.86
2018-12-17T10:45:12.662Z,101958.79
2018-12-17T10:46:16.635Z,101956.95
2018-12-17T10:47:20.595Z,101952.58
2018-12-17T10:48:24.622Z,101955.27
2018-12-17T10:49:28.661Z,101960.62
2018-12-17T10:50:32.789Z,101953.42
2018-12-17T10:51:36.828Z,101951.58
2018-12-17T10:52:40.834Z,101943.31
2018-12-17T10:53:44.825Z,101942.81
2018-12-17T10:54:48.970Z,101950.39
2018-12-17T10:55:52.983Z,101948.52
2018-12-17T10:56:57.012Z,101953.77
2018-12-17T10:58:00.960Z,101951.58
2018-12-17T10:59:04.898Z,101951.73
2018-12-17T11:00:12.267Z,101952.08
2018-12-17T11:01:21.203Z,101951.83
2018-12-17T11:02:32.388Z,101963.03
2018-12-17T11:03:41.259Z,101971.55
2018-12-17T11:04:55.438Z,101961.63
2018-12-17T11:05:59.528Z,101973.61
2018-12-17T11:07:03.550Z,101973.61
2018-12-17T11:08:07.485Z,101964.72
2018-12-17T11:09:11.485Z,101968.59
2018-12-17T11:10:15.468Z,101973.11
2018-12-17T11:11:19.551Z,101972.61
2018-12-17T11:12:23.597Z,101976.14
2018-12-17T11:13:27.588Z,101967.74
2018-12-17T11:14:31.575Z,101971.77
2018-12-17T11:15:35.776Z,101974.45
2018-12-17T11:16:39.800Z,101970.09
2018-12-17T11:17:44.751Z,101977.14
2018-12-17T11:18:47.903Z,101974.45
2018-12-17T11:19:53.971Z,101974.05
2018-12-17T11:20:58.159Z,101988.22
2018-12-17T11:22:02.223Z,101981.82
2018-12-17T11:23:06.222Z,101982.51
2018-12-17T11:24:10.260Z,101983.84
2018-12-17T11:25:14.281Z,101994.59
2018-12-17T11:26:18.407Z,101993.40
2018-12-17T11:27:22.397Z,101987.19
2018-12-17T11:28:26.364Z,101997.27
2018-12-17T11:29:30.332Z,101994.24
2018-12-17T11:30:34.311Z,101993.24
2018-12-17T11:31:38.302Z,101988.72
2018-12-17T11:32:44.345Z,101986.53
2018-12-17T11:33:48.673Z,101997.27
2018-12-17T11:34:52.965Z,101993.24
2018-12-17T11:35:56.963Z,101997.27
2018-12-17T11:37:00.987Z,101999.11
2018-12-17T11:38:05.045Z,102001.30
2018-12-17T11:39:09.162Z,101995.59
2018-12-17T11:40:13.240Z,102000.45
2018-12-17T11:41:17.207Z,102003.98
2018-12-17T11:42:21.261Z,101992.68
2018-12-17T11:43:25.260Z,101997.92
2018-12-17T11:44:29.224Z,102002.30
2018-12-17T11:45:33.245Z,102002.30
2018-12-17T11:46:37.235Z,102005.48
2018-12-17T11:47:41.243Z,102000.11
2018-12-17T11:48:45.297Z,102004.98
2018-12-17T11:49:49.225Z,102001.45
2018-12-17T11:50:53.192Z,102004.98
2018-12-17T11:51:57.202Z,102004.98
2018-12-17T11:53:01.316Z,102004.48
2018-12-17T11:54:05.365Z,101999.61
2018-12-17T11:55:09.380Z,102002.30
2018-12-17T11:56:13.443Z,102004.63
2018-12-17T11:58:00.539Z,102000.39
2018-12-17T11:59:04.623Z,102004.14
2018-12-17T12:00:08.808Z,102003.30
2018-12-17T12:01:12.928Z,102001.58
2018-12-17T12:02:17.002Z,102003.64
2018-12-17T12:03:21.022Z,102007.79
2018-12-17T12:04:25.045Z,102004.14
2018-12-17T12:05:29.080Z,102011.34
2018-12-17T12:06:33.084Z,102006.45
2018-12-17T12:07:37.026Z,102006.45
2018-12-17T12:08:41.090Z,102004.26
2018-12-17T12:09:45.058Z,102008.66
2018-12-17T12:10:49.038Z,102003.30
2018-12-17T12:11:53.039Z,102005.98